createdAt,value
2019-05-14T00:01:42.241Z,4.97
2019-05-14T00:06:46.323Z,5.08
2019-05-14T00:11:51.277Z,4.50
2019-05-14T00:16:55.403Z,4.55
2019-05-14T00:22:02.261Z,4.50
2019-05-14T00:27:11.517Z,5.70
2019-05-14T00:32:15.904Z,5.58
2019-05-14T00:37:21.727Z,6.50
2019-05-14T00:42:28.334Z,7.87
2019-05-14T00:47:36.927Z,7.67
2019-05-14T00:52:44.287Z,7.05
2019-05-14T00:57:46.660Z,7.60
2019-05-14T01:02:51.810Z,8.33
2019-05-14T01:07:56.300Z,7.62
2019-05-14T01:13:01.256Z,7.10
2019-05-14T01:18:05.827Z,7.25
2019-05-14T01:23:11.544Z,7.53
2019-05-14T01:28:15.627Z,6.65
2019-05-14T01:33:21.217Z,5.25
2019-05-14T01:38:25.020Z,6.28
2019-05-14T01:43:31.279Z,5.55
2019-05-14T01:48:34.504Z,6.37
2019-05-14T01:53:41.689Z,5.70
2019-05-14T01:58:45.323Z,5.78
2019-05-14T02:03:51.605Z,5.58
2019-05-14T02:08:54.707Z,6.20
2019-05-14T02:13:58.582Z,6.03
2019-05-14T02:19:02.452Z,5.55
2019-05-14T02:24:06.320Z,5.65
2019-05-14T02:29:12.295Z,5.60
2019-05-14T02:34:15.709Z,6.20
2019-05-14T02:39:19.826Z,5.90
2019-05-14T02:44:23.757Z,6.25
2019-05-14T02:49:29.945Z,5.83
2019-05-14T02:54:33.198Z,5.58
2019-05-14T02:59:39.430Z,5.95
2019-05-14T03:04:42.594Z,6.45
2019-05-14T03:09:46.467Z,6.37
2019-05-14T03:14:50.385Z,6.12
2019-05-14T03:19:54.290Z,7.40
2019-05-14T03:24:59.815Z,8.23
2019-05-14T03:30:03.892Z,8.68
2019-05-14T03:35:13.151Z,9.38
2019-05-14T03:40:13.677Z,10.93
2019-05-14T03:45:19.511Z,10.70
2019-05-14T03:50:23.073Z,10.30
2019-05-14T03:55:29.258Z,8.40
2019-05-14T04:00:49.968Z,7.95
2019-05-14T04:05:53.987Z,7.22
2019-05-14T04:10:59.436Z,6.12
2019-05-14T04:16:04.862Z,5.55
2019-05-14T04:21:10.334Z,5.95
2019-05-14T04:26:15.968Z,6.10
2019-05-14T04:31:21.055Z,5.62
2019-05-14T04:36:24.942Z,5.65
2019-05-14T04:41:29.893Z,5.90
2019-05-14T04:46:34.326Z,5.40
2019-05-14T04:51:39.656Z,5.35
2019-05-14T04:56:43.856Z,5.97
2019-05-14T05:01:49.380Z,5.75
2019-05-14T05:06:53.348Z,5.30
2019-05-14T05:11:59.795Z,5.30
2019-05-14T05:17:02.830Z,6.35
2019-05-14T05:22:08.046Z,5.87
2019-05-14T05:27:12.163Z,5.78
2019-05-14T05:32:16.096Z,6.28
2019-05-14T05:37:20.324Z,6.30
2019-05-14T05:42:24.225Z,5.25
2019-05-14T05:47:28.733Z,5.40
2019-05-14T05:52:32.846Z,5.28
2019-05-14T05:57:38.975Z,6.22
2019-05-14T06:02:42.354Z,8.65
2019-05-14T06:07:48.202Z,15.70
2019-05-14T06:12:51.838Z,22.93
2019-05-14T06:18:11.604Z,5.90
2019-05-14T06:23:01.260Z,5.45
2019-05-14T06:28:05.158Z,6.53
2019-05-14T06:33:09.362Z,6.83
2019-05-14T06:38:13.309Z,7.45
2019-05-14T06:43:18.956Z,7.40
2019-05-14T06:48:30.657Z,7.60
2019-05-14T06:53:29.012Z,11.97
2019-05-14T06:58:33.238Z,11.30
2019-05-14T07:03:38.244Z,9.05
2019-05-14T07:08:42.362Z,8.43
2019-05-14T07:13:48.847Z,8.75
2019-05-14T07:18:54.111Z,9.43
2019-05-14T07:23:59.341Z,9.75
2019-05-14T07:29:03.011Z,14.18
2019-05-14T07:34:08.940Z,13.70
2019-05-14T07:39:12.424Z,6.83
2019-05-14T07:44:18.289Z,5.33
2019-05-14T07:49:21.976Z,5.87
2019-05-14T07:54:28.156Z,5.70
2019-05-14T07:59:31.316Z,4.05
2019-05-14T08:04:35.213Z,6.67
2019-05-14T08:09:39.193Z,4.80
2019-05-14T08:14:57.990Z,4.53
2019-05-14T08:19:49.309Z,7.37
2019-05-14T08:24:53.264Z,3.37
2019-05-14T08:29:58.931Z,7.08
2019-05-14T08:35:02.677Z,6.22
2019-05-14T08:40:09.438Z,6.47
2019-05-14T08:45:14.645Z,5.20
2019-05-14T08:50:19.263Z,3.00
2019-05-14T08:55:23.134Z,1.85
2019-05-14T09:00:28.676Z,2.75
2019-05-14T09:05:32.620Z,2.72
2019-05-14T09:10:36.525Z,5.50
2019-05-14T09:15:40.473Z,9.28
2019-05-14T09:20:44.409Z,9.15
2019-05-14T09:25:53.061Z,3.25
2019-05-14T09:30:53.919Z,3.05
2019-05-14T09:36:13.174Z,2.85
2019-05-14T09:41:11.365Z,2.40
2019-05-14T09:46:09.180Z,2.50
2019-05-14T09:51:13.208Z,2.70
2019-05-14T09:56:18.590Z,2.70
2019-05-14T10:01:22.670Z,2.05
2019-05-14T10:06:28.432Z,2.47
2019-05-14T10:11:32.166Z,2.50
2019-05-14T10:16:38.362Z,2.62
2019-05-14T10:21:41.677Z,3.05
2019-05-14T10:26:48.248Z,2.10
2019-05-14T10:31:51.174Z,2.80
2019-05-14T10:36:55.108Z,2.50
2019-05-14T10:41:59.001Z,3.02
2019-05-14T10:47:02.935Z,2.85
2019-05-14T10:52:08.256Z,3.62
2019-05-14T10:57:12.410Z,3.47
2019-05-14T11:02:18.386Z,3.30
2019-05-14T11:07:21.960Z,7.42
2019-05-14T11:12:25.886Z,5.00
2019-05-14T11:17:29.786Z,6.80
2019-05-14T11:22:33.744Z,7.42
2019-05-14T11:27:38.852Z,7.83
2019-05-14T11:32:43.119Z,4.97
2019-05-14T11:37:48.028Z,5.03
2019-05-14T11:42:52.115Z,5.05
2019-05-14T11:47:58.196Z,5.03
2019-05-14T11:53:01.786Z,4.65
2019-05-14T11:58:08.602Z,5.17
2019-05-14T12:03:11.840Z,4.08
2019-05-14T12:08:18.371Z,4.47
2019-05-14T12:13:21.836Z,4.40
2019-05-14T12:18:25.790Z,4.22
2019-05-14T12:23:29.939Z,4.05
2019-05-14T12:28:34.139Z,3.75
2019-05-14T12:33:39.562Z,2.70
2019-05-14T12:38:43.592Z,3.55
2019-05-14T12:43:47.443Z,3.10
2019-05-14T12:48:51.321Z,4.78
2019-05-14T12:53:55.213Z,3.25
2019-05-14T12:58:59.129Z,5.67
2019-05-14T13:04:03.249Z,3.37
2019-05-14T13:09:09.385Z,5.20
2019-05-14T13:14:12.988Z,6.55
2019-05-14T13:19:19.097Z,6.17
2019-05-14T13:24:23.025Z,4.65
2019-05-14T13:29:28.916Z,4.87
2019-05-14T13:34:32.461Z,7.92
2019-05-14T13:39:39.615Z,5.25
2019-05-14T13:44:41.878Z,4.55
2019-05-14T13:49:48.496Z,5.40
2019-05-14T13:54:51.383Z,3.35
2019-05-14T13:59:55.268Z,3.60
2019-05-14T14:04:59.375Z,3.42
2019-05-14T14:10:05.249Z,3.30
2019-05-14T14:15:10.418Z,3.17
2019-05-14T14:20:14.530Z,2.58
2019-05-14T14:25:18.460Z,3.27
2019-05-14T14:30:22.410Z,2.70
2019-05-14T14:35:30.210Z,2.42
2019-05-14T14:40:31.912Z,2.92
2019-05-14T14:45:35.935Z,3.10
2019-05-14T14:50:39.846Z,3.17
2019-05-14T14:55:44.940Z,3.37
2019-05-14T15:00:49.809Z,3.00
2019-05-14T15:05:53.809Z,3.60
2019-05-14T15:10:59.439Z,4.42
2019-05-14T15:16:03.636Z,2.95
2019-05-14T15:21:09.803Z,2.70
2019-05-14T15:26:13.475Z,2.80
2019-05-14T15:31:19.088Z,8.98
2019-05-14T15:36:23.351Z,4.80
2019-05-14T15:41:29.695Z,3.35
2019-05-14T15:46:32.977Z,2.92
2019-05-14T15:51:36.906Z,3.52
2019-05-14T15:56:40.834Z,3.72
2019-05-14T16:01:44.798Z,3.87
2019-05-14T16:06:48.955Z,2.62
2019-05-14T16:11:53.023Z,2.42
2019-05-14T16:16:56.975Z,4.30
2019-05-14T16:22:01.012Z,3.55
2019-05-14T16:27:04.922Z,3.35
2019-05-14T16:32:08.978Z,3.33
2019-05-14T16:37:14.524Z,4.60
2019-05-14T16:42:20.565Z,4.17
2019-05-14T16:47:24.077Z,3.20
2019-05-14T16:52:28.704Z,2.60
2019-05-14T16:57:32.805Z,3.60
2019-05-14T17:02:36.725Z,2.87
2019-05-14T17:07:40.663Z,3.00
2019-05-14T17:12:52.427Z,2.90
2019-05-14T17:17:50.158Z,3.02
2019-05-14T17:22:54.107Z,3.08
2019-05-14T17:27:59.309Z,3.27
2019-05-14T17:33:03.494Z,3.08
2019-05-14T17:38:09.256Z,2.87
2019-05-14T17:43:12.906Z,3.87
2019-05-14T17:48:18.296Z,2.58
2019-05-14T17:53:22.489Z,2.50
2019-05-14T17:58:28.599Z,4.00
2019-05-14T18:03:31.982Z,4.12
2019-05-14T18:08:35.926Z,4.50
2019-05-14T18:13:39.781Z,4.75
2019-05-14T18:18:43.815Z,4.35
2019-05-14T18:23:49.145Z,8.03
2019-05-14T18:28:53.468Z,6.12
2019-05-14T18:33:58.758Z,5.22
2019-05-14T18:39:02.981Z,5.28
2019-05-14T18:44:08.415Z,5.85
2019-05-14T18:49:12.437Z,5.70
2019-05-14T18:54:16.321Z,4.78
2019-05-14T18:59:21.380Z,3.80
2019-05-14T19:04:27.842Z,4.40
2019-05-14T19:09:31.048Z,4.87
2019-05-14T19:14:35.304Z,5.15
2019-05-14T19:19:39.182Z,5.83
2019-05-14T19:24:43.062Z,5.03
2019-05-14T19:29:48.436Z,4.53
2019-05-14T19:34:52.695Z,5.35
2019-05-14T19:39:58.590Z,4.90
2019-05-14T19:45:02.191Z,5.20
2019-05-14T19:50:08.953Z,4.92
2019-05-14T19:55:13.194Z,5.03
2019-05-14T20:00:20.034Z,6.30
2019-05-14T20:05:23.925Z,5.85
2019-05-14T20:10:29.164Z,10.93
2019-05-14T20:15:34.880Z,8.40
2019-05-14T20:20:39.342Z,7.10
2019-05-14T20:25:43.276Z,6.65
2019-05-14T20:30:49.273Z,6.08
2019-05-14T20:35:52.947Z,6.28
2019-05-14T20:40:58.138Z,7.30
2019-05-14T20:46:02.126Z,7.05
2019-05-14T20:51:08.939Z,6.40
2019-05-14T20:56:11.837Z,6.67
2019-05-14T21:01:18.238Z,8.55
2019-05-14T21:06:21.425Z,11.35
2019-05-14T21:11:25.405Z,12.85
2019-05-14T21:16:29.459Z,11.78
2019-05-14T21:21:33.406Z,8.20
2019-05-14T21:26:39.849Z,6.70
2019-05-14T21:31:42.916Z,5.75
2019-05-14T21:36:46.958Z,7.72
2019-05-14T21:41:50.882Z,7.50
2019-05-14T21:46:54.841Z,7.70
2019-05-14T21:51:58.866Z,6.17
2019-05-14T21:57:02.786Z,7.92
2019-05-14T22:02:07.912Z,7.50
2019-05-14T22:07:11.827Z,6.00
2019-05-14T22:12:15.749Z,5.47
2019-05-14T22:17:19.694Z,4.60
2019-05-14T22:22:23.597Z,4.05
2019-05-14T22:27:28.142Z,4.50
2019-05-14T22:32:32.149Z,5.12
2019-05-14T22:37:36.072Z,4.30
2019-05-14T22:42:39.990Z,4.08
2019-05-14T22:47:43.932Z,3.90
2019-05-14T22:52:48.704Z,3.47
2019-05-14T22:57:52.762Z,3.33
2019-05-14T23:02:56.677Z,3.37
2019-05-14T23:08:00.626Z,3.67
2019-05-14T23:13:04.637Z,3.77
2019-05-14T23:18:08.721Z,3.52
2019-05-14T23:23:12.784Z,3.50
2019-05-14T23:28:19.055Z,3.52
2019-05-14T23:33:22.190Z,3.25
2019-05-14T23:38:28.964Z,3.08
2019-05-14T23:43:32.561Z,3.37
2019-05-14T23:48:38.863Z,3.17
2019-05-14T23:53:41.980Z,3.00
2019-05-14T23:58:54.908Z,3.40
